sensor_id;sensor_type;location;lat;lon;timestamp;P1;durP1;ratioP1;P2;durP2;ratioP2
30697;SDS011;17448;47.200;10.902;2022-08-19T00:08:33;3.53;;;1.92;;
30697;SDS011;17448;47.200;10.902;2022-08-19T00:28:48;7.95;;;2.70;;
30697;SDS011;17448;47.200;10.902;2022-08-19T02:44:16;4.85;;;2.20;;
30697;SDS011;17448;47.200;10.902;2022-08-19T02:46:44;3.97;;;2.30;;
30697;SDS011;17448;47.200;10.902;2022-08-19T02:49:14;4.60;;;2.42;;
30697;SDS011;17448;47.200;10.902;2022-08-19T02:51:42;4.43;;;2.70;;
30697;SDS011;17448;47.200;10.902;2022-08-19T02:54:12;6.22;;;2.30;;
30697;SDS011;17448;47.200;10.902;2022-08-19T02:56:39;4.53;;;2.50;;
30697;SDS011;17448;47.200;10.902;2022-08-19T02:59:09;2.95;;;2.10;;
30697;SDS011;17448;47.200;10.902;2022-08-19T03:01:37;2.70;;;2.20;;
30697;SDS011;17448;47.200;10.902;2022-08-19T03:15:21;3.95;;;2.30;;
30697;SDS011;17448;47.200;10.902;2022-08-19T03:17:47;4.80;;;2.60;;
30697;SDS011;17448;47.200;10.902;2022-08-19T03:20:13;4.15;;;2.53;;
30697;SDS011;17448;47.200;10.902;2022-08-19T03:22:39;3.45;;;2.33;;
30697;SDS011;17448;47.200;10.902;2022-08-19T03:25:06;3.47;;;1.92;;
30697;SDS011;17448;47.200;10.902;2022-08-19T03:27:32;7.82;;;2.33;;
30697;SDS011;17448;47.200;10.902;2022-08-19T03:29:58;2.60;;;2.25;;
30697;SDS011;17448;47.200;10.902;2022-08-19T03:32:32;4.80;;;2.85;;
30697;SDS011;17448;47.200;10.902;2022-08-19T03:34:58;3.17;;;1.90;;
30697;SDS011;17448;47.200;10.902;2022-08-19T03:37:24;4.45;;;2.25;;
30697;SDS011;17448;47.200;10.902;2022-08-19T03:39:51;5.63;;;2.67;;
30697;SDS011;17448;47.200;10.902;2022-08-19T03:42:17;8.63;;;2.50;;
30697;SDS011;17448;47.200;10.902;2022-08-19T03:44:43;3.88;;;2.30;;
30697;SDS011;17448;47.200;10.902;2022-08-19T03:47:09;6.50;;;2.00;;
30697;SDS011;17448;47.200;10.902;2022-08-19T03:49:40;5.30;;;2.53;;
30697;SDS011;17448;47.200;10.902;2022-08-19T03:52:07;2.78;;;2.00;;
30697;SDS011;17448;47.200;10.902;2022-08-19T03:54:33;5.10;;;2.20;;
30697;SDS011;17448;47.200;10.902;2022-08-19T03:56:59;5.28;;;2.78;;
30697;SDS011;17448;47.200;10.902;2022-08-19T03:59:29;2.55;;;2.08;;
30697;SDS011;17448;47.200;10.902;2022-08-19T04:01:56;5.30;;;2.47;;
30697;SDS011;17448;47.200;10.902;2022-08-19T04:04:23;6.85;;;2.60;;
30697;SDS011;17448;47.200;10.902;2022-08-19T04:06:49;5.30;;;2.60;;
30697;SDS011;17448;47.200;10.902;2022-08-19T04:09:16;5.70;;;2.15;;
30697;SDS011;17448;47.200;10.902;2022-08-19T04:11:45;4.70;;;2.03;;
30697;SDS011;17448;47.200;10.902;2022-08-19T04:14:12;4.10;;;2.10;;
30697;SDS011;17448;47.200;10.902;2022-08-19T04:16:39;4.78;;;2.05;;
30697;SDS011;17448;47.200;10.902;2022-08-19T04:19:05;2.90;;;2.25;;
30697;SDS011;17448;47.200;10.902;2022-08-19T04:21:32;3.35;;;2.30;;
30697;SDS011;17448;47.200;10.902;2022-08-19T04:23:58;4.93;;;2.80;;
30697;SDS011;17448;47.200;10.902;2022-08-19T04:26:29;3.80;;;2.15;;
30697;SDS011;17448;47.200;10.902;2022-08-19T04:28:59;4.90;;;2.75;;
30697;SDS011;17448;47.200;10.902;2022-08-19T04:31:27;4.78;;;2.38;;
30697;SDS011;17448;47.200;10.902;2022-08-19T04:33:55;8.63;;;3.00;;
30697;SDS011;17448;47.200;10.902;2022-08-19T04:36:24;3.10;;;2.20;;
30697;SDS011;17448;47.200;10.902;2022-08-19T04:38:52;3.13;;;2.78;;
30697;SDS011;17448;47.200;10.902;2022-08-19T04:41:19;3.67;;;2.42;;
30697;SDS011;17448;47.200;10.902;2022-08-19T04:44:04;5.03;;;2.50;;
30697;SDS011;17448;47.200;10.902;2022-08-19T04:46:30;7.90;;;2.80;;
30697;SDS011;17448;47.200;10.902;2022-08-19T04:49:00;3.80;;;2.58;;
30697;SDS011;17448;47.200;10.902;2022-08-19T04:51:27;5.80;;;2.63;;
30697;SDS011;17448;47.200;10.902;2022-08-19T04:53:56;3.90;;;2.33;;
30697;SDS011;17448;47.200;10.902;2022-08-19T04:56:22;3.33;;;2.95;;
30697;SDS011;17448;47.200;10.902;2022-08-19T04:58:51;3.85;;;2.20;;
30697;SDS011;17448;47.200;10.902;2022-08-19T05:01:19;4.63;;;2.78;;
30697;SDS011;17448;47.200;10.902;2022-08-19T05:03:45;5.38;;;2.90;;
30697;SDS011;17448;47.200;10.902;2022-08-19T05:06:13;5.78;;;3.03;;
30697;SDS011;17448;47.200;10.902;2022-08-19T05:08:40;2.97;;;2.25;;
30697;SDS011;17448;47.200;10.902;2022-08-19T05:11:15;4.50;;;2.22;;
30697;SDS011;17448;47.200;10.902;2022-08-19T05:13:45;3.70;;;2.47;;
30697;SDS011;17448;47.200;10.902;2022-08-19T05:16:12;4.05;;;2.70;;
30697;SDS011;17448;47.200;10.902;2022-08-19T05:18:38;4.13;;;2.40;;
30697;SDS011;17448;47.200;10.902;2022-08-19T05:21:24;6.55;;;3.10;;
30697;SDS011;17448;47.200;10.902;2022-08-19T05:24:10;4.70;;;2.72;;
30697;SDS011;17448;47.200;10.902;2022-08-19T05:26:36;4.95;;;2.70;;
30697;SDS011;17448;47.200;10.902;2022-08-19T05:29:02;5.50;;;3.25;;
30697;SDS011;17448;47.200;10.902;2022-08-19T05:31:29;8.43;;;3.17;;
30697;SDS011;17448;47.200;10.902;2022-08-19T05:33:55;3.67;;;2.80;;
30697;SDS011;17448;47.200;10.902;2022-08-19T05:36:24;8.00;;;3.50;;
30697;SDS011;17448;47.200;10.902;2022-08-19T05:38:50;5.53;;;3.03;;
30697;SDS011;17448;47.200;10.902;2022-08-19T05:41:18;4.38;;;2.85;;
30697;SDS011;17448;47.200;10.902;2022-08-19T05:43:44;8.50;;;3.13;;
30697;SDS011;17448;47.200;10.902;2022-08-19T05:46:16;4.82;;;3.00;;
30697;SDS011;17448;47.200;10.902;2022-08-19T05:48:43;5.05;;;3.35;;
30697;SDS011;17448;47.200;10.902;2022-08-19T05:51:12;7.97;;;3.85;;
30697;SDS011;17448;47.200;10.902;2022-08-19T05:53:39;6.40;;;3.53;;
30697;SDS011;17448;47.200;10.902;2022-08-19T05:56:06;5.18;;;3.00;;
30697;SDS011;17448;47.200;10.902;2022-08-19T05:58:32;5.90;;;3.75;;
30697;SDS011;17448;47.200;10.902;2022-08-19T06:00:58;8.25;;;3.60;;
30697;SDS011;17448;47.200;10.902;2022-08-19T06:03:30;6.28;;;3.83;;
30697;SDS011;17448;47.200;10.902;2022-08-19T06:05:56;7.47;;;3.33;;
30697;SDS011;17448;47.200;10.902;2022-08-19T06:08:24;6.28;;;3.90;;
30697;SDS011;17448;47.200;10.902;2022-08-19T06:10:50;7.60;;;4.05;;
30697;SDS011;17448;47.200;10.902;2022-08-19T06:13:16;9.63;;;4.35;;
30697;SDS011;17448;47.200;10.902;2022-08-19T06:15:44;6.13;;;3.70;;
30697;SDS011;17448;47.200;10.902;2022-08-19T06:18:14;5.75;;;3.72;;
30697;SDS011;17448;47.200;10.902;2022-08-19T06:20:41;5.57;;;3.42;;
30697;SDS011;17448;47.200;10.902;2022-08-19T06:23:07;4.68;;;2.83;;
30697;SDS011;17448;47.200;10.902;2022-08-19T06:25:34;6.90;;;4.10;;
30697;SDS011;17448;47.200;10.902;2022-08-19T06:28:00;9.05;;;3.58;;
30697;SDS011;17448;47.200;10.902;2022-08-19T06:30:26;6.50;;;3.60;;
30697;SDS011;17448;47.200;10.902;2022-08-19T06:32:52;5.25;;;3.63;;
30697;SDS011;17448;47.200;10.902;2022-08-19T06:35:19;4.65;;;3.70;;
30697;SDS011;17448;47.200;10.902;2022-08-19T06:37:45;6.40;;;3.70;;
30697;SDS011;17448;47.200;10.902;2022-08-19T06:40:12;5.05;;;3.88;;
30697;SDS011;17448;47.200;10.902;2022-08-19T06:42:38;6.28;;;3.50;;
30697;SDS011;17448;47.200;10.902;2022-08-19T06:45:05;6.90;;;3.53;;
30697;SDS011;17448;47.200;10.902;2022-08-19T06:47:33;3.80;;;3.22;;
30697;SDS011;17448;47.200;10.902;2022-08-19T06:50:00;6.78;;;3.92;;
30697;SDS011;17448;47.200;10.902;2022-08-19T06:52:28;5.18;;;3.60;;
30697;SDS011;17448;47.200;10.902;2022-08-19T06:54:54;6.68;;;3.83;;
30697;SDS011;17448;47.200;10.902;2022-08-19T06:57:21;5.68;;;3.70;;
30697;SDS011;17448;47.200;10.902;2022-08-19T06:59:47;5.35;;;3.30;;
30697;SDS011;17448;47.200;10.902;2022-08-19T07:02:14;6.60;;;3.85;;
30697;SDS011;17448;47.200;10.902;2022-08-19T07:04:40;6.05;;;3.60;;
30697;SDS011;17448;47.200;10.902;2022-08-19T07:07:08;6.32;;;4.00;;
30697;SDS011;17448;47.200;10.902;2022-08-19T07:09:35;6.07;;;3.78;;
30697;SDS011;17448;47.200;10.902;2022-08-19T07:12:04;6.20;;;3.35;;
30697;SDS011;17448;47.200;10.902;2022-08-19T07:14:31;6.32;;;3.80;;
30697;SDS011;17448;47.200;10.902;2022-08-19T07:16:58;7.45;;;3.28;;
30697;SDS011;17448;47.200;10.902;2022-08-19T07:19:25;7.88;;;3.60;;
30697;SDS011;17448;47.200;10.902;2022-08-19T07:21:52;6.43;;;3.58;;
30697;SDS011;17448;47.200;10.902;2022-08-19T07:24:19;6.95;;;3.60;;
30697;SDS011;17448;47.200;10.902;2022-08-19T07:26:46;5.95;;;4.00;;
30697;SDS011;17448;47.200;10.902;2022-08-19T07:29:12;7.43;;;3.78;;
30697;SDS011;17448;47.200;10.902;2022-08-19T07:31:38;10.38;;;3.40;;
30697;SDS011;17448;47.200;10.902;2022-08-19T07:34:05;5.43;;;3.40;;
30697;SDS011;17448;47.200;10.902;2022-08-19T07:36:32;7.63;;;4.00;;
30697;SDS011;17448;47.200;10.902;2022-08-19T07:38:59;7.63;;;3.90;;
30697;SDS011;17448;47.200;10.902;2022-08-19T07:41:27;6.25;;;3.53;;
30697;SDS011;17448;47.200;10.902;2022-08-19T07:43:54;6.50;;;4.13;;
30697;SDS011;17448;47.200;10.902;2022-08-19T07:46:20;4.55;;;3.40;;
30697;SDS011;17448;47.200;10.902;2022-08-19T07:48:47;6.82;;;4.13;;
30697;SDS011;17448;47.200;10.902;2022-08-19T07:51:16;6.60;;;3.33;;
30697;SDS011;17448;47.200;10.902;2022-08-19T07:53:43;9.70;;;4.28;;
30697;SDS011;17448;47.200;10.902;2022-08-19T07:56:11;7.00;;;3.38;;
30697;SDS011;17448;47.200;10.902;2022-08-19T07:58:38;6.15;;;3.45;;
30697;SDS011;17448;47.200;10.902;2022-08-19T08:01:06;4.32;;;3.42;;
30697;SDS011;17448;47.200;10.902;2022-08-19T08:03:33;6.10;;;3.85;;
30697;SDS011;17448;47.200;10.902;2022-08-19T08:06:17;5.82;;;4.00;;
30697;SDS011;17448;47.200;10.902;2022-08-19T08:09:03;5.63;;;3.85;;
30697;SDS011;17448;47.200;10.902;2022-08-19T08:11:49;7.20;;;3.88;;
30697;SDS011;17448;47.200;10.902;2022-08-19T08:14:21;6.25;;;3.55;;
30697;SDS011;17448;47.200;10.902;2022-08-19T08:16:48;5.72;;;3.35;;
30697;SDS011;17448;47.200;10.902;2022-08-19T08:19:15;10.40;;;3.72;;
30697;SDS011;17448;47.200;10.902;2022-08-19T08:21:42;5.15;;;3.55;;
30697;SDS011;17448;47.200;10.902;2022-08-19T08:24:09;5.50;;;3.60;;
30697;SDS011;17448;47.200;10.902;2022-08-19T08:26:35;6.72;;;3.75;;
30697;SDS011;17448;47.200;10.902;2022-08-19T08:29:01;6.45;;;3.72;;
30697;SDS011;17448;47.200;10.902;2022-08-19T08:31:28;5.60;;;3.88;;
30697;SDS011;17448;47.200;10.902;2022-08-19T08:33:54;5.30;;;3.33;;
30697;SDS011;17448;47.200;10.902;2022-08-19T08:36:20;6.20;;;4.13;;
30697;SDS011;17448;47.200;10.902;2022-08-19T08:38:47;6.60;;;3.60;;
30697;SDS011;17448;47.200;10.902;2022-08-19T08:43:51;4.47;;;3.42;;
30697;SDS011;17448;47.200;10.902;2022-08-19T08:49:17;6.95;;;3.35;;
30697;SDS011;17448;47.200;10.902;2022-08-19T08:51:39;4.80;;;3.97;;
30697;SDS011;17448;47.200;10.902;2022-08-19T08:54:06;5.03;;;3.65;;
30697;SDS011;17448;47.200;10.902;2022-08-19T08:56:33;5.50;;;3.78;;
30697;SDS011;17448;47.200;10.902;2022-08-19T09:01:46;7.10;;;3.60;;
30697;SDS011;17448;47.200;10.902;2022-08-19T09:04:13;6.60;;;3.70;;
30697;SDS011;17448;47.200;10.902;2022-08-19T09:06:46;5.63;;;3.47;;
30697;SDS011;17448;47.200;10.902;2022-08-19T09:09:17;5.18;;;3.17;;
30697;SDS011;17448;47.200;10.902;2022-08-19T09:17:12;3.38;;;3.08;;
30697;SDS011;17448;47.200;10.902;2022-08-19T09:19:56;7.95;;;3.30;;
30697;SDS011;17448;47.200;10.902;2022-08-19T09:22:22;5.40;;;3.75;;
30697;SDS011;17448;47.200;10.902;2022-08-19T09:24:49;5.30;;;3.47;;
30697;SDS011;17448;47.200;10.902;2022-08-19T09:27:17;6.57;;;3.20;;
30697;SDS011;17448;47.200;10.902;2022-08-19T09:29:44;3.47;;;2.70;;
30697;SDS011;17448;47.200;10.902;2022-08-19T09:32:10;5.63;;;3.22;;
30697;SDS011;17448;47.200;10.902;2022-08-19T09:34:36;6.05;;;3.33;;
30697;SDS011;17448;47.200;10.902;2022-08-19T09:37:02;4.63;;;3.00;;
30697;SDS011;17448;47.200;10.902;2022-08-19T09:39:28;4.03;;;2.53;;
30697;SDS011;17448;47.200;10.902;2022-08-19T09:41:56;3.78;;;2.75;;
30697;SDS011;17448;47.200;10.902;2022-08-19T09:44:22;4.43;;;2.85;;
30697;SDS011;17448;47.200;10.902;2022-08-19T09:46:48;5.85;;;2.47;;
30697;SDS011;17448;47.200;10.902;2022-08-19T09:49:16;2.85;;;2.50;;
30697;SDS011;17448;47.200;10.902;2022-08-19T09:51:42;3.65;;;2.13;;
30697;SDS011;17448;47.200;10.902;2022-08-19T09:54:08;3.25;;;2.10;;
30697;SDS011;17448;47.200;10.902;2022-08-19T09:56:35;2.53;;;2.33;;
30697;SDS011;17448;47.200;10.902;2022-08-19T09:59:02;4.68;;;2.33;;
30697;SDS011;17448;47.200;10.902;2022-08-19T10:01:31;5.18;;;2.00;;
30697;SDS011;17448;47.200;10.902;2022-08-19T10:03:58;2.35;;;2.10;;
30697;SDS011;17448;47.200;10.902;2022-08-19T10:06:26;3.38;;;2.17;;
30697;SDS011;17448;47.200;10.902;2022-08-19T10:08:55;2.78;;;2.00;;
30697;SDS011;17448;47.200;10.902;2022-08-19T10:11:21;2.40;;;1.50;;
30697;SDS011;17448;47.200;10.902;2022-08-19T10:13:47;2.30;;;1.90;;
30697;SDS011;17448;47.200;10.902;2022-08-19T10:16:15;2.90;;;2.10;;
30697;SDS011;17448;47.200;10.902;2022-08-19T10:18:43;2.22;;;1.85;;
30697;SDS011;17448;47.200;10.902;2022-08-19T10:21:13;2.92;;;1.80;;
30697;SDS011;17448;47.200;10.902;2022-08-19T10:23:41;2.08;;;1.50;;
30697;SDS011;17448;47.200;10.902;2022-08-19T10:26:14;1.85;;;1.60;;
30697;SDS011;17448;47.200;10.902;2022-08-19T10:28:40;1.50;;;1.40;;
30697;SDS011;17448;47.200;10.902;2022-08-19T10:31:15;2.58;;;1.80;;
30697;SDS011;17448;47.200;10.902;2022-08-19T10:33:42;2.47;;;2.03;;
30697;SDS011;17448;47.200;10.902;2022-08-19T10:36:13;2.17;;;1.77;;
30697;SDS011;17448;47.200;10.902;2022-08-19T10:38:40;4.50;;;2.30;;
30697;SDS011;17448;47.200;10.902;2022-08-19T10:41:11;3.17;;;1.48;;
30697;SDS011;17448;47.200;10.902;2022-08-19T10:43:38;3.00;;;1.70;;
30697;SDS011;17448;47.200;10.902;2022-08-19T10:46:06;2.58;;;1.67;;
30697;SDS011;17448;47.200;10.902;2022-08-19T10:48:32;4.22;;;1.63;;
30697;SDS011;17448;47.200;10.902;2022-08-19T10:50:59;2.95;;;1.48;;
30697;SDS011;17448;47.200;10.902;2022-08-19T10:53:44;2.15;;;1.50;;
30697;SDS011;17448;47.200;10.902;2022-08-19T10:56:13;2.30;;;1.50;;
30697;SDS011;17448;47.200;10.902;2022-08-19T10:58:58;4.68;;;1.50;;
30697;SDS011;17448;47.200;10.902;2022-08-19T11:01:27;4.00;;;1.50;;
30697;SDS011;17448;47.200;10.902;2022-08-19T11:03:55;4.47;;;1.48;;
30697;SDS011;17448;47.200;10.902;2022-08-19T11:06:22;2.90;;;1.65;;
30697;SDS011;17448;47.200;10.902;2022-08-19T11:08:50;4.63;;;1.55;;
30697;SDS011;17448;47.200;10.902;2022-08-19T11:11:16;2.92;;;1.30;;
30697;SDS011;17448;47.200;10.902;2022-08-19T11:13:43;2.00;;;1.40;;
30697;SDS011;17448;47.200;10.902;2022-08-19T11:16:15;3.45;;;1.55;;
30697;SDS011;17448;47.200;10.902;2022-08-19T11:18:47;1.77;;;1.17;;
30697;SDS011;17448;47.200;10.902;2022-08-19T11:21:23;3.13;;;1.40;;
30697;SDS011;17448;47.200;10.902;2022-08-19T11:23:51;4.45;;;1.15;;
30697;SDS011;17448;47.200;10.902;2022-08-19T11:26:18;2.90;;;1.20;;
30697;SDS011;17448;47.200;10.902;2022-08-19T11:28:44;1.27;;;1.02;;
30697;SDS011;17448;47.200;10.902;2022-08-19T11:31:15;2.13;;;1.60;;
30697;SDS011;17448;47.200;10.902;2022-08-19T11:33:42;2.92;;;1.40;;
30697;SDS011;17448;47.200;10.902;2022-08-19T11:36:11;1.40;;;1.30;;
30697;SDS011;17448;47.200;10.902;2022-08-19T11:38:38;2.88;;;1.52;;
30697;SDS011;17448;47.200;10.902;2022-08-19T11:41:05;1.33;;;1.23;;
30697;SDS011;17448;47.200;10.902;2022-08-19T11:43:36;1.13;;;1.10;;
30697;SDS011;17448;47.200;10.902;2022-08-19T11:46:06;3.38;;;1.27;;
30697;SDS011;17448;47.200;10.902;2022-08-19T11:48:32;1.92;;;1.25;;
30697;SDS011;17448;47.200;10.902;2022-08-19T11:51:02;2.97;;;1.33;;
30697;SDS011;17448;47.200;10.902;2022-08-19T11:53:31;2.25;;;1.40;;
30697;SDS011;17448;47.200;10.902;2022-08-19T11:55:57;1.27;;;1.05;;
30697;SDS011;17448;47.200;10.902;2022-08-19T11:58:23;1.52;;;1.10;;
30697;SDS011;17448;47.200;10.902;2022-08-19T12:00:50;1.05;;;0.90;;
30697;SDS011;17448;47.200;10.902;2022-08-19T12:03:16;1.27;;;1.17;;
30697;SDS011;17448;47.200;10.902;2022-08-19T12:05:44;1.20;;;1.10;;
30697;SDS011;17448;47.200;10.902;2022-08-19T12:08:10;1.63;;;1.08;;
30697;SDS011;17448;47.200;10.902;2022-08-19T12:10:38;3.13;;;1.27;;
30697;SDS011;17448;47.200;10.902;2022-08-19T12:13:04;2.08;;;1.08;;
30697;SDS011;17448;47.200;10.902;2022-08-19T12:15:35;1.73;;;1.25;;
30697;SDS011;17448;47.200;10.902;2022-08-19T12:18:01;1.88;;;1.17;;
30697;SDS011;17448;47.200;10.902;2022-08-19T12:20:27;3.88;;;1.35;;
30697;SDS011;17448;47.200;10.902;2022-08-19T12:22:53;1.48;;;1.00;;
30697;SDS011;17448;47.200;10.902;2022-08-19T12:25:19;2.35;;;1.50;;
30697;SDS011;17448;47.200;10.902;2022-08-19T12:27:46;1.42;;;1.20;;
30697;SDS011;17448;47.200;10.902;2022-08-19T12:30:12;2.28;;;1.30;;
30697;SDS011;17448;47.200;10.902;2022-08-19T12:32:39;2.15;;;1.17;;
30697;SDS011;17448;47.200;10.902;2022-08-19T12:35:06;2.92;;;1.40;;
30697;SDS011;17448;47.200;10.902;2022-08-19T12:37:34;4.22;;;1.60;;
30697;SDS011;17448;47.200;10.902;2022-08-19T12:40:00;3.70;;;1.52;;
30697;SDS011;17448;47.200;10.902;2022-08-19T12:42:27;1.95;;;1.30;;
30697;SDS011;17448;47.200;10.902;2022-08-19T12:44:54;1.17;;;0.95;;
30697;SDS011;17448;47.200;10.902;2022-08-19T12:47:20;2.60;;;1.33;;
30697;SDS011;17448;47.200;10.902;2022-08-19T12:49:47;6.28;;;2.03;;
30697;SDS011;17448;47.200;10.902;2022-08-19T12:52:14;1.92;;;1.05;;
30697;SDS011;17448;47.200;10.902;2022-08-19T12:54:41;2.20;;;1.27;;
30697;SDS011;17448;47.200;10.902;2022-08-19T12:57:08;1.45;;;1.10;;
30697;SDS011;17448;47.200;10.902;2022-08-19T12:59:36;6.18;;;2.35;;
30697;SDS011;17448;47.200;10.902;2022-08-19T13:02:06;1.85;;;1.13;;
30697;SDS011;17448;47.200;10.902;2022-08-19T13:04:33;1.63;;;1.00;;
30697;SDS011;17448;47.200;10.902;2022-08-19T13:07:06;1.55;;;0.95;;
30697;SDS011;17448;47.200;10.902;2022-08-19T13:09:33;2.35;;;1.30;;
30697;SDS011;17448;47.200;10.902;2022-08-19T13:11:59;2.42;;;1.40;;
30697;SDS011;17448;47.200;10.902;2022-08-19T13:14:29;5.07;;;1.42;;
30697;SDS011;17448;47.200;10.902;2022-08-19T13:17:52;1.37;;;0.77;;
30697;SDS011;17448;47.200;10.902;2022-08-19T13:20:19;1.23;;;0.82;;
30697;SDS011;17448;47.200;10.902;2022-08-19T13:22:46;3.53;;;1.17;;
30697;SDS011;17448;47.200;10.902;2022-08-19T13:27:49;3.53;;;1.45;;
30697;SDS011;17448;47.200;10.902;2022-08-19T13:30:16;0.65;;;0.60;;
30697;SDS011;17448;47.200;10.902;2022-08-19T13:33:02;1.83;;;0.80;;
30697;SDS011;17448;47.200;10.902;2022-08-19T13:35:42;2.13;;;0.70;;
30697;SDS011;17448;47.200;10.902;2022-08-19T13:38:08;1.42;;;0.80;;
30697;SDS011;17448;47.200;10.902;2022-08-19T13:40:35;1.58;;;1.02;;
30697;SDS011;17448;47.200;10.902;2022-08-19T13:43:03;1.08;;;0.70;;
30697;SDS011;17448;47.200;10.902;2022-08-19T13:45:31;1.63;;;1.13;;
30697;SDS011;17448;47.200;10.902;2022-08-19T13:47:59;1.88;;;0.90;;
30697;SDS011;17448;47.200;10.902;2022-08-19T13:50:27;4.35;;;0.98;;
30697;SDS011;17448;47.200;10.902;2022-08-19T13:52:54;1.08;;;0.90;;
30697;SDS011;17448;47.200;10.902;2022-08-19T13:55:21;0.50;;;0.50;;
30697;SDS011;17448;47.200;10.902;2022-08-19T13:57:57;3.05;;;0.93;;
30697;SDS011;17448;47.200;10.902;2022-08-19T14:00:24;0.73;;;0.60;;
30697;SDS011;17448;47.200;10.902;2022-08-19T14:02:52;1.40;;;1.00;;
30697;SDS011;17448;47.200;10.902;2022-08-19T14:05:18;1.27;;;0.80;;
30697;SDS011;17448;47.200;10.902;2022-08-19T14:07:45;0.98;;;0.60;;
30697;SDS011;17448;47.200;10.902;2022-08-19T14:10:12;1.58;;;0.70;;
30697;SDS011;17448;47.200;10.902;2022-08-19T14:12:38;0.60;;;0.60;;
30697;SDS011;17448;47.200;10.902;2022-08-19T14:15:05;1.65;;;0.63;;
30697;SDS011;17448;47.200;10.902;2022-08-19T14:17:31;0.77;;;0.75;;
30697;SDS011;17448;47.200;10.902;2022-08-19T14:20:03;0.90;;;0.50;;
30697;SDS011;17448;47.200;10.902;2022-08-19T14:22:34;1.23;;;0.63;;
30697;SDS011;17448;47.200;10.902;2022-08-19T14:25:00;0.88;;;0.50;;
30697;SDS011;17448;47.200;10.902;2022-08-19T14:27:26;1.23;;;0.40;;
30697;SDS011;17448;47.200;10.902;2022-08-19T14:29:53;1.42;;;0.38;;
30697;SDS011;17448;47.200;10.902;2022-08-19T14:32:20;2.72;;;1.00;;
30697;SDS011;17448;47.200;10.902;2022-08-19T14:34:46;0.63;;;0.43;;
30697;SDS011;17448;47.200;10.902;2022-08-19T14:37:13;0.57;;;0.28;;
30697;SDS011;17448;47.200;10.902;2022-08-19T14:39:40;2.03;;;0.60;;
30697;SDS011;17448;47.200;10.902;2022-08-19T14:42:07;0.60;;;0.60;;
30697;SDS011;17448;47.200;10.902;2022-08-19T14:44:33;1.63;;;0.80;;
30697;SDS011;17448;47.200;10.902;2022-08-19T14:46:59;1.33;;;0.60;;
30697;SDS011;17448;47.200;10.902;2022-08-19T14:49:26;0.93;;;0.50;;
30697;SDS011;17448;47.200;10.902;2022-08-19T14:51:52;1.73;;;0.47;;
30697;SDS011;17448;47.200;10.902;2022-08-19T14:54:18;0.35;;;0.35;;
30697;SDS011;17448;47.200;10.902;2022-08-19T14:56:44;1.83;;;0.35;;
30697;SDS011;17448;47.200;10.902;2022-08-19T14:59:10;0.40;;;0.40;;
30697;SDS011;17448;47.200;10.902;2022-08-19T15:01:37;0.55;;;0.55;;
30697;SDS011;17448;47.200;10.902;2022-08-19T15:04:03;1.25;;;0.40;;
30697;SDS011;17448;47.200;10.902;2022-08-19T15:06:29;1.10;;;0.50;;
30697;SDS011;17448;47.200;10.902;2022-08-19T15:08:56;0.65;;;0.60;;
30697;SDS011;17448;47.200;10.902;2022-08-19T15:11:23;2.13;;;0.40;;
30697;SDS011;17448;47.200;10.902;2022-08-19T15:13:51;0.40;;;0.40;;
30697;SDS011;17448;47.200;10.902;2022-08-19T15:16:18;0.45;;;0.45;;
30697;SDS011;17448;47.200;10.902;2022-08-19T15:18:45;0.50;;;0.50;;
30697;SDS011;17448;47.200;10.902;2022-08-19T15:21:12;0.50;;;0.50;;
30697;SDS011;17448;47.200;10.902;2022-08-19T15:23:39;1.95;;;0.50;;
30697;SDS011;17448;47.200;10.902;2022-08-19T15:26:06;0.52;;;0.50;;
30697;SDS011;17448;47.200;10.902;2022-08-19T15:28:32;0.57;;;0.40;;
30697;SDS011;17448;47.200;10.902;2022-08-19T15:30:58;2.28;;;0.50;;
30697;SDS011;17448;47.200;10.902;2022-08-19T15:33:24;1.42;;;0.60;;
30697;SDS011;17448;47.200;10.902;2022-08-19T15:35:51;1.70;;;0.60;;
30697;SDS011;17448;47.200;10.902;2022-08-19T15:38:19;1.38;;;0.50;;
30697;SDS011;17448;47.200;10.902;2022-08-19T15:40:50;2.33;;;0.75;;
30697;SDS011;17448;47.200;10.902;2022-08-19T15:43:17;1.20;;;0.55;;
30697;SDS011;17448;47.200;10.902;2022-08-19T15:45:44;0.65;;;0.65;;
30697;SDS011;17448;47.200;10.902;2022-08-19T15:48:10;0.82;;;0.57;;
30697;SDS011;17448;47.200;10.902;2022-08-19T15:50:36;2.80;;;0.75;;
30697;SDS011;17448;47.200;10.902;2022-08-19T15:53:08;1.40;;;0.60;;
30697;SDS011;17448;47.200;10.902;2022-08-19T15:55:36;4.50;;;1.48;;
30697;SDS011;17448;47.200;10.902;2022-08-19T15:58:07;4.15;;;0.90;;
30697;SDS011;17448;47.200;10.902;2022-08-19T16:00:52;2.15;;;0.75;;
30697;SDS011;17448;47.200;10.902;2022-08-19T16:03:37;1.55;;;0.55;;
30697;SDS011;17448;47.200;10.902;2022-08-19T16:06:22;0.80;;;0.40;;
30697;SDS011;17448;47.200;10.902;2022-08-19T16:08:55;0.40;;;0.40;;
30697;SDS011;17448;47.200;10.902;2022-08-19T16:11:22;4.05;;;1.13;;
30697;SDS011;17448;47.200;10.902;2022-08-19T16:13:50;2.25;;;1.00;;
30697;SDS011;17448;47.200;10.902;2022-08-19T16:16:18;0.65;;;0.60;;
30697;SDS011;17448;47.200;10.902;2022-08-19T16:18:45;0.68;;;0.40;;
30697;SDS011;17448;47.200;10.902;2022-08-19T16:21:12;0.20;;;0.20;;
30697;SDS011;17448;47.200;10.902;2022-08-19T16:23:40;0.30;;;0.30;;
30697;SDS011;17448;47.200;10.902;2022-08-19T16:26:09;1.95;;;0.50;;
30697;SDS011;17448;47.200;10.902;2022-08-19T16:28:36;0.90;;;0.55;;
30697;SDS011;17448;47.200;10.902;2022-08-19T16:31:02;0.47;;;0.47;;
30697;SDS011;17448;47.200;10.902;2022-08-19T16:33:28;0.68;;;0.30;;
30697;SDS011;17448;47.200;10.902;2022-08-19T16:35:55;0.68;;;0.60;;
30697;SDS011;17448;47.200;10.902;2022-08-19T16:38:21;1.02;;;0.60;;
30697;SDS011;17448;47.200;10.902;2022-08-19T16:40:47;0.40;;;0.40;;
30697;SDS011;17448;47.200;10.902;2022-08-19T16:43:20;1.40;;;0.40;;
30697;SDS011;17448;47.200;10.902;2022-08-19T16:48:39;1.98;;;0.20;;
30697;SDS011;17448;47.200;10.902;2022-08-19T16:51:08;1.40;;;0.45;;
30697;SDS011;17448;47.200;10.902;2022-08-19T16:53:35;1.08;;;0.35;;
30697;SDS011;17448;47.200;10.902;2022-08-19T16:56:02;0.85;;;0.50;;
30697;SDS011;17448;47.200;10.902;2022-08-19T17:18:11;2.08;;;0.32;;
30697;SDS011;17448;47.200;10.902;2022-08-19T17:20:38;0.35;;;0.30;;
30697;SDS011;17448;47.200;10.902;2022-08-19T17:23:05;0.85;;;0.40;;
30697;SDS011;17448;47.200;10.902;2022-08-19T17:45:38;0.93;;;0.60;;
30697;SDS011;17448;47.200;10.902;2022-08-19T17:48:06;1.95;;;0.90;;
30697;SDS011;17448;47.200;10.902;2022-08-19T18:18:19;2.15;;;0.50;;
30697;SDS011;17448;47.200;10.902;2022-08-19T18:21:02;4.90;;;1.70;;
30697;SDS011;17448;47.200;10.902;2022-08-19T18:23:37;2.28;;;0.95;;
30697;SDS011;17448;47.200;10.902;2022-08-19T18:26:05;1.80;;;1.00;;
30697;SDS011;17448;47.200;10.902;2022-08-19T18:28:35;1.77;;;0.70;;
30697;SDS011;17448;47.200;10.902;2022-08-19T18:31:09;2.22;;;0.80;;
30697;SDS011;17448;47.200;10.902;2022-08-19T18:33:36;2.10;;;0.70;;
30697;SDS011;17448;47.200;10.902;2022-08-19T18:36:03;1.77;;;0.60;;
30697;SDS011;17448;47.200;10.902;2022-08-19T18:38:35;1.75;;;0.70;;
30697;SDS011;17448;47.200;10.902;2022-08-19T18:41:20;0.80;;;0.70;;
30697;SDS011;17448;47.200;10.902;2022-08-19T18:44:05;1.20;;;0.80;;
30697;SDS011;17448;47.200;10.902;2022-08-19T18:46:53;1.80;;;0.95;;
30697;SDS011;17448;47.200;10.902;2022-08-19T18:49:42;3.10;;;1.20;;
30697;SDS011;17448;47.200;10.902;2022-08-19T18:52:08;0.93;;;0.82;;
30697;SDS011;17448;47.200;10.902;2022-08-19T18:57:11;3.70;;;0.80;;
30697;SDS011;17448;47.200;10.902;2022-08-19T18:59:38;2.05;;;0.80;;